メインページ
METAR-TAF:

METAR-TAF

空港 :

ダブリン, アイルランド

ダブリン空港

緯度: 53-26N, 経度: 006-15W, 海抜: 68m

現時点の気象観測

当レポートは21分前の11:30(UTC)に作成
南東の風 9kt、から南/南東の間で変化する
気温 19°C
湿度 73%
気圧 1026 hPa
視程10km以上
高度1400ftの雲はほとんどない

METAR: EIDW 241130Z 14009KT 100V160 9999 FEW014 19/14 Q1026 NOSIG

時間: 12:51 (11:51 UTC)

予報

当レポートは51分前の11:00(UTC)に作成
予報は24日の 12時(UTC)から 25日の 12時(UTC)まで有効
南東の風 8kt
視程10km以上
高度1500ftの雲は散在している
24日の 22時(UTC)から 25日の 09時(UTC)まで一時的に
変向風 3kt
確率 30% :
24日の 22時(UTC)から 25日の 01時(UTC)まで一時的に
視程: 0600m
高度100ftの千切れ雲あり
25日の 01時(UTC)から 25日の 09時(UTC)まで一時的に
視程: 0600m
高度100ftの千切れ雲あり
25日の 06時(UTC)から 25日の 08時(UTC)まで徐々に
東/南東の風 8kt

TAF: EIDW 241100Z 2412/2512 14008KT 9999 SCT015 TEMPO 2422/2509 VRB03KT PROB30 TEMPO 2422/2501 0600 FG BKN001 TEMPO 2501/2509 0600 FG BKN001 BECMG 2506/2508 11008KT

4,000以上の空港の気象観測と天気予報(METAR報とTAF報)

利用可能な観測所は地図上に黄色い丸と赤い丸で示す。

丸の上にカーソルを重ねると観測所名を参照できる。

次にクリックすると気象観測と天気予報を参照できる。

マップの切り替え:黒色「×」印の緑ボタンをクリックして拡大、「-」印の緑ボタンをクリックして縮小、緑色の三角印をクリックして隣りの地図に切り替え


METAR-TAF: